sensor_id;sensor_type;location;lat;lon;timestamp;temperature;humidity
14401;DHT22;7285;50.894;5.462;2023-03-21T00:00:30;10.00;1.00
14401;DHT22;7285;50.894;5.462;2023-03-21T00:02:59;9.90;1.00
14401;DHT22;7285;50.894;5.462;2023-03-21T00:05:26;9.90;1.00
14401;DHT22;7285;50.894;5.462;2023-03-21T00:07:53;9.90;1.00
14401;DHT22;7285;50.894;5.462;2023-03-21T00:10:21;9.80;1.00
14401;DHT22;7285;50.894;5.462;2023-03-21T00:12:48;9.80;1.00
14401;DHT22;7285;50.894;5.462;2023-03-21T00:15:20;9.80;1.00
14401;DHT22;7285;50.894;5.462;2023-03-21T00:17:47;9.70;99.90
14401;DHT22;7285;50.894;5.462;2023-03-21T00:20:16;9.60;99.90
14401;DHT22;7285;50.894;5.462;2023-03-21T00:22:43;9.60;99.90
14401;DHT22;7285;50.894;5.462;2023-03-21T00:25:11;9.60;99.90
14401;DHT22;7285;50.894;5.462;2023-03-21T00:27:38;9.60;1.00
14401;DHT22;7285;50.894;5.462;2023-03-21T00:30:06;9.60;1.00
14401;DHT22;7285;50.894;5.462;2023-03-21T00:32:33;9.50;1.00
14401;DHT22;7285;50.894;5.462;2023-03-21T00:35:00;9.40;1.00
14401;DHT22;7285;50.894;5.462;2023-03-21T00:37:28;9.40;1.00
14401;DHT22;7285;50.894;5.462;2023-03-21T00:39:55;9.30;1.00
14401;DHT22;7285;50.894;5.462;2023-03-21T00:42:22;9.40;1.00
14401;DHT22;7285;50.894;5.462;2023-03-21T00:44:49;9.30;15.70
14401;DHT22;7285;50.894;5.462;2023-03-21T00:47:16;9.30;99.90
14401;DHT22;7285;50.894;5.462;2023-03-21T00:49:43;9.30;99.90
14401;DHT22;7285;50.894;5.462;2023-03-21T00:52:10;9.20;1.00
14401;DHT22;7285;50.894;5.462;2023-03-21T00:54:38;9.20;1.00
14401;DHT22;7285;50.894;5.462;2023-03-21T00:57:05;9.20;1.00
14401;DHT22;7285;50.894;5.462;2023-03-21T00:59:32;9.20;1.00
14401;DHT22;7285;50.894;5.462;2023-03-21T01:01:59;9.20;1.00
14401;DHT22;7285;50.894;5.462;2023-03-21T01:04:27;9.20;1.00
14401;DHT22;7285;50.894;5.462;2023-03-21T01:06:54;9.30;1.00
14401;DHT22;7285;50.894;5.462;2023-03-21T01:09:22;9.30;1.00
14401;DHT22;7285;50.894;5.462;2023-03-21T01:11:51;9.30;1.00
14401;DHT22;7285;50.894;5.462;2023-03-21T01:14:20;9.30;1.00
14401;DHT22;7285;50.894;5.462;2023-03-21T01:16:48;9.30;1.00
14401;DHT22;7285;50.894;5.462;2023-03-21T01:19:17;9.30;1.00
14401;DHT22;7285;50.894;5.462;2023-03-21T01:21:44;9.30;1.00
14401;DHT22;7285;50.894;5.462;2023-03-21T01:24:11;9.30;1.00
14401;DHT22;7285;50.894;5.462;2023-03-21T01:26:38;9.30;1.00
14401;DHT22;7285;50.894;5.462;2023-03-21T01:29:06;9.30;96.30
14401;DHT22;7285;50.894;5.462;2023-03-21T01:31:33;9.40;21.90
14401;DHT22;7285;50.894;5.462;2023-03-21T01:34:03;9.40;46.40
14401;DHT22;7285;50.894;5.462;2023-03-21T01:36:30;9.40;99.90
14401;DHT22;7285;50.894;5.462;2023-03-21T01:38:57;9.30;99.90
14401;DHT22;7285;50.894;5.462;2023-03-21T01:41:27;9.30;1.00
14401;DHT22;7285;50.894;5.462;2023-03-21T01:43:54;9.30;1.00
14401;DHT22;7285;50.894;5.462;2023-03-21T01:46:31;9.30;1.00
14401;DHT22;7285;50.894;5.462;2023-03-21T01:49:02;9.30;1.00
14401;DHT22;7285;50.894;5.462;2023-03-21T01:51:33;9.30;1.00
14401;DHT22;7285;50.894;5.462;2023-03-21T01:54:01;9.40;1.00
14401;DHT22;7285;50.894;5.462;2023-03-21T01:56:30;9.40;99.90
14401;DHT22;7285;50.894;5.462;2023-03-21T01:59:04;9.50;1.00
14401;DHT22;7285;50.894;5.462;2023-03-21T02:01:33;9.40;1.00
14401;DHT22;7285;50.894;5.462;2023-03-21T02:04:04;9.50;1.00
14401;DHT22;7285;50.894;5.462;2023-03-21T02:06:38;9.50;1.00
14401;DHT22;7285;50.894;5.462;2023-03-21T02:09:10;9.50;1.00
14401;DHT22;7285;50.894;5.462;2023-03-21T02:11:38;9.50;1.00
14401;DHT22;7285;50.894;5.462;2023-03-21T02:14:05;9.50;1.00
14401;DHT22;7285;50.894;5.462;2023-03-21T02:16:46;9.50;1.00
14401;DHT22;7285;50.894;5.462;2023-03-21T02:19:31;9.40;1.00
14401;DHT22;7285;50.894;5.462;2023-03-21T02:25:26;9.40;48.00
14401;DHT22;7285;50.894;5.462;2023-03-21T02:28:02;9.50;1.00
14401;DHT22;7285;50.894;5.462;2023-03-21T02:30:44;9.40;1.00
14401;DHT22;7285;50.894;5.462;2023-03-21T02:36:42;9.40;1.00
14401;DHT22;7285;50.894;5.462;2023-03-21T02:39:12;9.40;1.00
14401;DHT22;7285;50.894;5.462;2023-03-21T02:41:47;9.40;99.90
14401;DHT22;7285;50.894;5.462;2023-03-21T02:44:20;9.40;99.90
14401;DHT22;7285;50.894;5.462;2023-03-21T02:46:51;9.40;92.70
14401;DHT22;7285;50.894;5.462;2023-03-21T02:49:23;9.50;1.00
14401;DHT22;7285;50.894;5.462;2023-03-21T02:51:55;9.50;1.00
14401;DHT22;7285;50.894;5.462;2023-03-21T02:54:24;9.50;1.00
14401;DHT22;7285;50.894;5.462;2023-03-21T02:56:53;9.50;1.00
14401;DHT22;7285;50.894;5.462;2023-03-21T02:59:22;9.50;1.00
14401;DHT22;7285;50.894;5.462;2023-03-21T03:01:51;9.50;1.00
14401;DHT22;7285;50.894;5.462;2023-03-21T03:04:20;9.60;99.90
14401;DHT22;7285;50.894;5.462;2023-03-21T03:07:02;9.60;99.90
14401;DHT22;7285;50.894;5.462;2023-03-21T03:09:44;9.60;99.90
14401;DHT22;7285;50.894;5.462;2023-03-21T03:12:23;9.60;1.00
14401;DHT22;7285;50.894;5.462;2023-03-21T03:14:56;9.70;1.00
14401;DHT22;7285;50.894;5.462;2023-03-21T03:17:38;9.60;99.90
14401;DHT22;7285;50.894;5.462;2023-03-21T03:20:17;9.60;99.90
14401;DHT22;7285;50.894;5.462;2023-03-21T03:22:53;9.60;99.90
14401;DHT22;7285;50.894;5.462;2023-03-21T03:25:24;9.60;99.90
14401;DHT22;7285;50.894;5.462;2023-03-21T03:27:53;9.70;99.90
14401;DHT22;7285;50.894;5.462;2023-03-21T03:30:24;9.60;99.90
14401;DHT22;7285;50.894;5.462;2023-03-21T03:32:54;9.60;99.90
14401;DHT22;7285;50.894;5.462;2023-03-21T03:35:24;9.70;99.90
14401;DHT22;7285;50.894;5.462;2023-03-21T03:37:55;9.70;99.90
14401;DHT22;7285;50.894;5.462;2023-03-21T03:40:26;9.70;99.90
14401;DHT22;7285;50.894;5.462;2023-03-21T03:42:57;9.70;99.90
14401;DHT22;7285;50.894;5.462;2023-03-21T03:45:29;9.70;99.90
14401;DHT22;7285;50.894;5.462;2023-03-21T03:48:04;9.70;99.90
14401;DHT22;7285;50.894;5.462;2023-03-21T03:50:37;9.70;99.90
14401;DHT22;7285;50.894;5.462;2023-03-21T03:53:15;9.70;99.90
14401;DHT22;7285;50.894;5.462;2023-03-21T03:55:43;9.70;1.00
14401;DHT22;7285;50.894;5.462;2023-03-21T03:58:10;9.80;1.00
14401;DHT22;7285;50.894;5.462;2023-03-21T04:00:37;9.80;1.00
14401;DHT22;7285;50.894;5.462;2023-03-21T04:03:05;9.80;1.00
14401;DHT22;7285;50.894;5.462;2023-03-21T04:05:34;9.80;1.00
14401;DHT22;7285;50.894;5.462;2023-03-21T04:08:01;9.80;1.00
14401;DHT22;7285;50.894;5.462;2023-03-21T04:10:29;9.80;1.00
14401;DHT22;7285;50.894;5.462;2023-03-21T04:12:56;9.80;1.00
14401;DHT22;7285;50.894;5.462;2023-03-21T04:15:23;9.80;1.00
14401;DHT22;7285;50.894;5.462;2023-03-21T04:17:50;9.80;61.60
14401;DHT22;7285;50.894;5.462;2023-03-21T04:20:18;9.80;99.90
14401;DHT22;7285;50.894;5.462;2023-03-21T04:22:45;9.80;99.90
14401;DHT22;7285;50.894;5.462;2023-03-21T04:25:13;9.80;99.90
14401;DHT22;7285;50.894;5.462;2023-03-21T04:27:41;9.80;99.90
14401;DHT22;7285;50.894;5.462;2023-03-21T04:30:10;9.80;99.90
14401;DHT22;7285;50.894;5.462;2023-03-21T04:32:37;9.70;99.90
14401;DHT22;7285;50.894;5.462;2023-03-21T04:35:06;9.80;99.90
14401;DHT22;7285;50.894;5.462;2023-03-21T04:37:34;9.80;99.90
14401;DHT22;7285;50.894;5.462;2023-03-21T04:40:02;9.70;99.90
14401;DHT22;7285;50.894;5.462;2023-03-21T04:42:31;9.70;1.00
14401;DHT22;7285;50.894;5.462;2023-03-21T04:45:00;9.70;1.00
14401;DHT22;7285;50.894;5.462;2023-03-21T04:47:28;9.60;99.90
14401;DHT22;7285;50.894;5.462;2023-03-21T04:49:55;9.60;94.00
14401;DHT22;7285;50.894;5.462;2023-03-21T04:52:22;9.60;24.00
14401;DHT22;7285;50.894;5.462;2023-03-21T04:54:49;9.60;24.70
14401;DHT22;7285;50.894;5.462;2023-03-21T04:57:16;9.70;1.00
14401;DHT22;7285;50.894;5.462;2023-03-21T04:59:43;9.70;1.00
14401;DHT22;7285;50.894;5.462;2023-03-21T05:02:12;9.70;1.00
14401;DHT22;7285;50.894;5.462;2023-03-21T05:04:40;9.80;99.90
14401;DHT22;7285;50.894;5.462;2023-03-21T05:07:07;9.80;99.90
14401;DHT22;7285;50.894;5.462;2023-03-21T05:09:34;9.80;99.90
14401;DHT22;7285;50.894;5.462;2023-03-21T05:12:01;9.80;1.00
14401;DHT22;7285;50.894;5.462;2023-03-21T05:14:28;9.80;1.00
14401;DHT22;7285;50.894;5.462;2023-03-21T05:16:55;9.80;99.90
14401;DHT22;7285;50.894;5.462;2023-03-21T05:19:25;9.80;1.00
14401;DHT22;7285;50.894;5.462;2023-03-21T05:21:59;9.80;1.00
14401;DHT22;7285;50.894;5.462;2023-03-21T05:24:29;9.70;99.90
14401;DHT22;7285;50.894;5.462;2023-03-21T05:26:57;9.70;99.90
14401;DHT22;7285;50.894;5.462;2023-03-21T05:29:27;9.70;99.90
14401;DHT22;7285;50.894;5.462;2023-03-21T05:31:55;9.70;99.90
14401;DHT22;7285;50.894;5.462;2023-03-21T05:34:23;9.70;99.90
14401;DHT22;7285;50.894;5.462;2023-03-21T05:36:51;9.70;99.90
14401;DHT22;7285;50.894;5.462;2023-03-21T05:39:19;9.70;99.90
14401;DHT22;7285;50.894;5.462;2023-03-21T05:41:46;9.70;1.00
14401;DHT22;7285;50.894;5.462;2023-03-21T05:44:13;9.70;1.00
14401;DHT22;7285;50.894;5.462;2023-03-21T05:46:40;9.70;1.00
14401;DHT22;7285;50.894;5.462;2023-03-21T05:49:09;9.70;1.00
14401;DHT22;7285;50.894;5.462;2023-03-21T05:51:38;9.70;1.00
14401;DHT22;7285;50.894;5.462;2023-03-21T05:54:05;9.70;36.30
14401;DHT22;7285;50.894;5.462;2023-03-21T05:56:32;9.70;99.90
14401;DHT22;7285;50.894;5.462;2023-03-21T05:58:59;9.70;99.90
14401;DHT22;7285;50.894;5.462;2023-03-21T06:01:26;9.70;1.00
14401;DHT22;7285;50.894;5.462;2023-03-21T06:03:53;9.70;1.00
14401;DHT22;7285;50.894;5.462;2023-03-21T06:06:20;9.70;1.00
14401;DHT22;7285;50.894;5.462;2023-03-21T06:08:48;9.70;82.40
14401;DHT22;7285;50.894;5.462;2023-03-21T06:11:21;9.70;99.90
14401;DHT22;7285;50.894;5.462;2023-03-21T06:13:49;9.70;1.00
14401;DHT22;7285;50.894;5.462;2023-03-21T06:16:15;9.70;1.00
14401;DHT22;7285;50.894;5.462;2023-03-21T06:18:42;9.70;1.00
14401;DHT22;7285;50.894;5.462;2023-03-21T06:21:09;9.80;1.00
14401;DHT22;7285;50.894;5.462;2023-03-21T06:23:36;9.80;1.00
14401;DHT22;7285;50.894;5.462;2023-03-21T06:26:06;9.80;1.00
14401;DHT22;7285;50.894;5.462;2023-03-21T06:28:33;9.80;1.00
14401;DHT22;7285;50.894;5.462;2023-03-21T06:31:00;9.80;99.90
14401;DHT22;7285;50.894;5.462;2023-03-21T06:33:27;9.80;99.90
14401;DHT22;7285;50.894;5.462;2023-03-21T06:35:56;9.90;91.30
14401;DHT22;7285;50.894;5.462;2023-03-21T06:38:23;9.90;1.00
14401;DHT22;7285;50.894;5.462;2023-03-21T06:40:51;9.90;1.00
14401;DHT22;7285;50.894;5.462;2023-03-21T06:43:19;9.90;1.00
14401;DHT22;7285;50.894;5.462;2023-03-21T06:45:46;10.00;99.90
14401;DHT22;7285;50.894;5.462;2023-03-21T06:48:13;10.00;59.60
14401;DHT22;7285;50.894;5.462;2023-03-21T06:50:40;10.00;1.00
14401;DHT22;7285;50.894;5.462;2023-03-21T06:53:07;10.10;1.00
14401;DHT22;7285;50.894;5.462;2023-03-21T06:55:34;10.10;1.00
14401;DHT22;7285;50.894;5.462;2023-03-21T06:58:01;10.10;1.00
14401;DHT22;7285;50.894;5.462;2023-03-21T07:00:30;10.20;99.90
14401;DHT22;7285;50.894;5.462;2023-03-21T07:02:57;10.20;99.90
14401;DHT22;7285;50.894;5.462;2023-03-21T07:05:27;10.20;99.90
14401;DHT22;7285;50.894;5.462;2023-03-21T07:07:54;10.20;8.20
14401;DHT22;7285;50.894;5.462;2023-03-21T07:10:21;10.20;1.00
14401;DHT22;7285;50.894;5.462;2023-03-21T07:12:48;10.30;1.00
14401;DHT22;7285;50.894;5.462;2023-03-21T07:15:15;10.30;46.50
14401;DHT22;7285;50.894;5.462;2023-03-21T07:17:43;10.20;1.00
14401;DHT22;7285;50.894;5.462;2023-03-21T07:20:11;10.30;1.00
14401;DHT22;7285;50.894;5.462;2023-03-21T07:22:39;10.30;1.00
14401;DHT22;7285;50.894;5.462;2023-03-21T07:25:06;10.30;99.90
14401;DHT22;7285;50.894;5.462;2023-03-21T07:27:34;10.30;1.00
14401;DHT22;7285;50.894;5.462;2023-03-21T07:30:01;10.20;99.90
14401;DHT22;7285;50.894;5.462;2023-03-21T07:32:31;10.20;1.00
14401;DHT22;7285;50.894;5.462;2023-03-21T07:35:00;10.10;1.00
14401;DHT22;7285;50.894;5.462;2023-03-21T07:37:27;10.10;1.00
14401;DHT22;7285;50.894;5.462;2023-03-21T07:39:54;10.10;1.00
14401;DHT22;7285;50.894;5.462;2023-03-21T07:42:22;10.10;1.00
14401;DHT22;7285;50.894;5.462;2023-03-21T07:44:49;10.10;99.90
14401;DHT22;7285;50.894;5.462;2023-03-21T07:47:17;10.20;1.00
14401;DHT22;7285;50.894;5.462;2023-03-21T07:49:44;10.20;1.00
14401;DHT22;7285;50.894;5.462;2023-03-21T07:52:12;10.20;99.90
14401;DHT22;7285;50.894;5.462;2023-03-21T07:54:40;10.10;99.90
14401;DHT22;7285;50.894;5.462;2023-03-21T07:57:07;10.10;1.00
14401;DHT22;7285;50.894;5.462;2023-03-21T07:59:34;10.10;1.00
14401;DHT22;7285;50.894;5.462;2023-03-21T08:02:01;10.10;99.90
14401;DHT22;7285;50.894;5.462;2023-03-21T08:04:28;10.00;1.00
14401;DHT22;7285;50.894;5.462;2023-03-21T08:06:55;10.00;99.90
14401;DHT22;7285;50.894;5.462;2023-03-21T08:09:23;9.80;1.00
14401;DHT22;7285;50.894;5.462;2023-03-21T08:11:50;9.80;8.30
14401;DHT22;7285;50.894;5.462;2023-03-21T08:14:17;9.70;1.00
14401;DHT22;7285;50.894;5.462;2023-03-21T08:16:44;9.70;99.90
14401;DHT22;7285;50.894;5.462;2023-03-21T08:19:11;9.60;1.00
14401;DHT22;7285;50.894;5.462;2023-03-21T08:21:38;9.50;1.00
14401;DHT22;7285;50.894;5.462;2023-03-21T08:24:05;9.50;99.90
14401;DHT22;7285;50.894;5.462;2023-03-21T08:26:34;9.50;1.00
14401;DHT22;7285;50.894;5.462;2023-03-21T08:29:01;9.50;1.00
14401;DHT22;7285;50.894;5.462;2023-03-21T08:31:28;9.60;56.10
14401;DHT22;7285;50.894;5.462;2023-03-21T08:33:55;9.60;99.90
14401;DHT22;7285;50.894;5.462;2023-03-21T08:36:23;9.60;1.00
14401;DHT22;7285;50.894;5.462;2023-03-21T08:38:50;9.70;43.50
14401;DHT22;7285;50.894;5.462;2023-03-21T08:41:19;9.80;99.90
14401;DHT22;7285;50.894;5.462;2023-03-21T08:43:48;9.80;1.00
14401;DHT22;7285;50.894;5.462;2023-03-21T08:46:15;9.80;1.00
14401;DHT22;7285;50.894;5.462;2023-03-21T08:48:42;10.00;1.00
14401;DHT22;7285;50.894;5.462;2023-03-21T08:51:09;10.00;99.90
14401;DHT22;7285;50.894;5.462;2023-03-21T08:53:36;10.10;1.00
14401;DHT22;7285;50.894;5.462;2023-03-21T08:56:04;10.10;1.00
14401;DHT22;7285;50.894;5.462;2023-03-21T08:58:31;10.20;1.00
14401;DHT22;7285;50.894;5.462;2023-03-21T09:00:59;10.30;99.90
14401;DHT22;7285;50.894;5.462;2023-03-21T09:03:26;10.40;1.00
14401;DHT22;7285;50.894;5.462;2023-03-21T09:05:55;10.50;1.00
14401;DHT22;7285;50.894;5.462;2023-03-21T09:08:23;10.70;99.90
14401;DHT22;7285;50.894;5.462;2023-03-21T09:10:52;10.80;16.30
14401;DHT22;7285;50.894;5.462;2023-03-21T09:13:19;10.90;1.00
14401;DHT22;7285;50.894;5.462;2023-03-21T09:15:47;11.00;1.00
14401;DHT22;7285;50.894;5.462;2023-03-21T09:18:15;11.20;1.00
14401;DHT22;7285;50.894;5.462;2023-03-21T09:20:47;11.20;1.00
14401;DHT22;7285;50.894;5.462;2023-03-21T09:23:15;11.30;99.90
14401;DHT22;7285;50.894;5.462;2023-03-21T09:25:44;11.40;99.90
14401;DHT22;7285;50.894;5.462;2023-03-21T09:28:11;11.60;65.80
14401;DHT22;7285;50.894;5.462;2023-03-21T09:30:38;11.80;1.00
14401;DHT22;7285;50.894;5.462;2023-03-21T09:33:06;12.00;1.00
14401;DHT22;7285;50.894;5.462;2023-03-21T09:35:39;12.00;1.00
14401;DHT22;7285;50.894;5.462;2023-03-21T09:38:07;11.90;99.90
14401;DHT22;7285;50.894;5.462;2023-03-21T09:40:44;12.00;1.00
14401;DHT22;7285;50.894;5.462;2023-03-21T09:43:19;11.90;99.90
14401;DHT22;7285;50.894;5.462;2023-03-21T09:45:53;11.80;1.00
14401;DHT22;7285;50.894;5.462;2023-03-21T09:48:33;11.80;1.00
14401;DHT22;7285;50.894;5.462;2023-03-21T09:51:03;11.90;96.30
14401;DHT22;7285;50.894;5.462;2023-03-21T09:53:34;12.00;99.90
14401;DHT22;7285;50.894;5.462;2023-03-21T09:56:04;11.90;99.90
14401;DHT22;7285;50.894;5.462;2023-03-21T09:58:35;11.90;1.00
14401;DHT22;7285;50.894;5.462;2023-03-21T10:01:09;11.90;1.00
14401;DHT22;7285;50.894;5.462;2023-03-21T10:03:47;11.90;1.00
14401;DHT22;7285;50.894;5.462;2023-03-21T10:06:16;11.90;1.00
14401;DHT22;7285;50.894;5.462;2023-03-21T10:08:45;11.90;99.90
14401;DHT22;7285;50.894;5.462;2023-03-21T10:11:17;12.00;1.00
14401;DHT22;7285;50.894;5.462;2023-03-21T10:13:49;12.10;99.90
14401;DHT22;7285;50.894;5.462;2023-03-21T10:16:22;12.10;19.60
14401;DHT22;7285;50.894;5.462;2023-03-21T10:18:53;12.20;1.00
14401;DHT22;7285;50.894;5.462;2023-03-21T10:21:23;12.30;1.00
14401;DHT22;7285;50.894;5.462;2023-03-21T10:23:53;12.40;1.00
14401;DHT22;7285;50.894;5.462;2023-03-21T10:26:21;12.30;1.00
14401;DHT22;7285;50.894;5.462;2023-03-21T10:28:51;12.20;1.00
14401;DHT22;7285;50.894;5.462;2023-03-21T10:31:22;12.20;1.00
14401;DHT22;7285;50.894;5.462;2023-03-21T10:33:52;12.10;1.00
14401;DHT22;7285;50.894;5.462;2023-03-21T10:36:23;12.10;1.00
14401;DHT22;7285;50.894;5.462;2023-03-21T10:38:54;12.00;99.90
14401;DHT22;7285;50.894;5.462;2023-03-21T10:41:21;12.10;99.90
14401;DHT22;7285;50.894;5.462;2023-03-21T10:44:04;12.20;1.00
14401;DHT22;7285;50.894;5.462;2023-03-21T10:46:31;12.30;99.90
14401;DHT22;7285;50.894;5.462;2023-03-21T10:48:59;12.40;1.00
14401;DHT22;7285;50.894;5.462;2023-03-21T10:51:32;12.40;99.90
14401;DHT22;7285;50.894;5.462;2023-03-21T10:54:04;12.40;99.90
14401;DHT22;7285;50.894;5.462;2023-03-21T10:56:46;12.40;99.90
14401;DHT22;7285;50.894;5.462;2023-03-21T10:59:17;12.50;1.00
14401;DHT22;7285;50.894;5.462;2023-03-21T11:01:49;12.50;99.90
14401;DHT22;7285;50.894;5.462;2023-03-21T11:04:19;12.60;99.90
14401;DHT22;7285;50.894;5.462;2023-03-21T11:06:52;12.70;99.90
14401;DHT22;7285;50.894;5.462;2023-03-21T11:09:22;13.00;99.90
14401;DHT22;7285;50.894;5.462;2023-03-21T11:11:52;13.20;1.00
14401;DHT22;7285;50.894;5.462;2023-03-21T11:14:41;13.40;1.00
14401;DHT22;7285;50.894;5.462;2023-03-21T11:17:23;13.90;1.00
14401;DHT22;7285;50.894;5.462;2023-03-21T11:19:51;13.70;1.00
14401;DHT22;7285;50.894;5.462;2023-03-21T11:22:22;13.70;1.00
14401;DHT22;7285;50.894;5.462;2023-03-21T11:24:52;13.80;1.00
14401;DHT22;7285;50.894;5.462;2023-03-21T11:27:19;13.80;1.00
14401;DHT22;7285;50.894;5.462;2023-03-21T11:29:47;13.80;1.00
14401;DHT22;7285;50.894;5.462;2023-03-21T11:32:21;13.80;1.00
14401;DHT22;7285;50.894;5.462;2023-03-21T11:34:50;13.80;1.00
14401;DHT22;7285;50.894;5.462;2023-03-21T11:37:23;13.90;1.00
14401;DHT22;7285;50.894;5.462;2023-03-21T11:39:56;14.00;1.00
14401;DHT22;7285;50.894;5.462;2023-03-21T11:42:40;14.30;1.00
14401;DHT22;7285;50.894;5.462;2023-03-21T11:45:11;14.10;1.00
14401;DHT22;7285;50.894;5.462;2023-03-21T11:47:38;14.10;1.00
14401;DHT22;7285;50.894;5.462;2023-03-21T11:50:15;14.10;1.00
14401;DHT22;7285;50.894;5.462;2023-03-21T11:52:52;14.40;99.90
14401;DHT22;7285;50.894;5.462;2023-03-21T11:55:30;14.70;1.00
14401;DHT22;7285;50.894;5.462;2023-03-21T11:58:08;15.00;1.00
14401;DHT22;7285;50.894;5.462;2023-03-21T12:00:42;14.70;99.90
14401;DHT22;7285;50.894;5.462;2023-03-21T12:03:27;15.00;99.90
14401;DHT22;7285;50.894;5.462;2023-03-21T12:06:00;15.10;99.90
14401;DHT22;7285;50.894;5.462;2023-03-21T12:08:36;15.30;99.90
14401;DHT22;7285;50.894;5.462;2023-03-21T12:11:11;15.30;99.90
14401;DHT22;7285;50.894;5.462;2023-03-21T12:13:49;15.30;99.90
14401;DHT22;7285;50.894;5.462;2023-03-21T12:16:35;15.40;99.90
14401;DHT22;7285;50.894;5.462;2023-03-21T12:19:16;15.10;99.90
14401;DHT22;7285;50.894;5.462;2023-03-21T12:21:53;14.80;99.90
14401;DHT22;7285;50.894;5.462;2023-03-21T12:24:31;15.10;99.90
14401;DHT22;7285;50.894;5.462;2023-03-21T12:27:07;15.70;99.90
14401;DHT22;7285;50.894;5.462;2023-03-21T12:29:47;16.40;99.90
14401;DHT22;7285;50.894;5.462;2023-03-21T12:32:23;16.70;99.90
14401;DHT22;7285;50.894;5.462;2023-03-21T12:37:52;17.30;39.30
14401;DHT22;7285;50.894;5.462;2023-03-21T12:40:33;17.10;1.00
14401;DHT22;7285;50.894;5.462;2023-03-21T12:43:26;16.70;1.00
14401;DHT22;7285;50.894;5.462;2023-03-21T12:45:57;16.90;1.00
14401;DHT22;7285;50.894;5.462;2023-03-21T12:48:32;16.90;1.00
14401;DHT22;7285;50.894;5.462;2023-03-21T12:51:06;16.90;1.00
14401;DHT22;7285;50.894;5.462;2023-03-21T12:53:56;16.80;1.00
14401;DHT22;7285;50.894;5.462;2023-03-21T12:56:30;16.70;1.00
14401;DHT22;7285;50.894;5.462;2023-03-21T12:59:05;16.70;1.00
14401;DHT22;7285;50.894;5.462;2023-03-21T13:01:35;16.90;1.00
14401;DHT22;7285;50.894;5.462;2023-03-21T13:07:00;16.60;1.00
14401;DHT22;7285;50.894;5.462;2023-03-21T13:09:33;16.80;1.00
14401;DHT22;7285;50.894;5.462;2023-03-21T13:12:10;16.50;1.00
14401;DHT22;7285;50.894;5.462;2023-03-21T13:14:51;16.30;1.00
14401;DHT22;7285;50.894;5.462;2023-03-21T13:17:23;16.10;1.00
14401;DHT22;7285;50.894;5.462;2023-03-21T13:19:57;16.40;1.00
14401;DHT22;7285;50.894;5.462;2023-03-21T13:22:27;16.40;1.00
14401;DHT22;7285;50.894;5.462;2023-03-21T13:24:58;16.50;1.00
14401;DHT22;7285;50.894;5.462;2023-03-21T13:27:31;16.70;1.00
14401;DHT22;7285;50.894;5.462;2023-03-21T13:30:01;16.70;1.00
14401;DHT22;7285;50.894;5.462;2023-03-21T13:32:32;16.60;1.00
14401;DHT22;7285;50.894;5.462;2023-03-21T13:35:02;16.50;1.00
14401;DHT22;7285;50.894;5.462;2023-03-21T13:37:39;16.20;1.00
14401;DHT22;7285;50.894;5.462;2023-03-21T13:42:50;15.80;1.00
14401;DHT22;7285;50.894;5.462;2023-03-21T13:45:26;15.90;1.00
14401;DHT22;7285;50.894;5.462;2023-03-21T13:47:55;15.80;1.00
14401;DHT22;7285;50.894;5.462;2023-03-21T13:50:49;15.90;1.00
14401;DHT22;7285;50.894;5.462;2023-03-21T13:53:29;16.00;1.00
14401;DHT22;7285;50.894;5.462;2023-03-21T13:56:08;16.00;1.00
14401;DHT22;7285;50.894;5.462;2023-03-21T13:58:38;16.20;1.00
14401;DHT22;7285;50.894;5.462;2023-03-21T14:01:29;16.20;1.00
14401;DHT22;7285;50.894;5.462;2023-03-21T14:03:59;16.30;1.00
14401;DHT22;7285;50.894;5.462;2023-03-21T14:06:32;17.00;1.00
14401;DHT22;7285;50.894;5.462;2023-03-21T14:09:00;18.20;1.00
14401;DHT22;7285;50.894;5.462;2023-03-21T14:11:30;18.60;1.00
14401;DHT22;7285;50.894;5.462;2023-03-21T14:14:00;18.20;1.00
14401;DHT22;7285;50.894;5.462;2023-03-21T14:16:29;17.80;1.00
14401;DHT22;7285;50.894;5.462;2023-03-21T14:19:00;17.70;1.00
14401;DHT22;7285;50.894;5.462;2023-03-21T14:21:29;17.30;1.00
14401;DHT22;7285;50.894;5.462;2023-03-21T14:24:01;16.90;1.00
14401;DHT22;7285;50.894;5.462;2023-03-21T14:26:32;17.20;1.00
14401;DHT22;7285;50.894;5.462;2023-03-21T14:29:03;17.10;1.00
14401;DHT22;7285;50.894;5.462;2023-03-21T14:31:31;17.70;1.00
14401;DHT22;7285;50.894;5.462;2023-03-21T14:34:00;17.30;1.00
14401;DHT22;7285;50.894;5.462;2023-03-21T14:36:29;17.60;1.00
14401;DHT22;7285;50.894;5.462;2023-03-21T14:39:04;18.20;1.00
14401;DHT22;7285;50.894;5.462;2023-03-21T14:41:33;18.90;1.00
14401;DHT22;7285;50.894;5.462;2023-03-21T14:44:15;19.20;1.00
14401;DHT22;7285;50.894;5.462;2023-03-21T14:46:47;18.60;1.00
14401;DHT22;7285;50.894;5.462;2023-03-21T14:49:20;17.90;1.00
14401;DHT22;7285;50.894;5.462;2023-03-21T14:51:50;17.60;1.00
14401;DHT22;7285;50.894;5.462;2023-03-21T14:54:17;17.10;1.00
14401;DHT22;7285;50.894;5.462;2023-03-21T14:56:48;18.10;1.00
14401;DHT22;7285;50.894;5.462;2023-03-21T14:59:20;18.30;1.00
14401;DHT22;7285;50.894;5.462;2023-03-21T15:01:49;18.00;1.00
14401;DHT22;7285;50.894;5.462;2023-03-21T15:04:17;17.40;1.00
14401;DHT22;7285;50.894;5.462;2023-03-21T15:06:51;17.10;1.00
14401;DHT22;7285;50.894;5.462;2023-03-21T15:09:21;16.80;1.00
14401;DHT22;7285;50.894;5.462;2023-03-21T15:11:50;16.60;1.00
14401;DHT22;7285;50.894;5.462;2023-03-21T15:14:23;16.50;1.00
14401;DHT22;7285;50.894;5.462;2023-03-21T15:16:51;16.30;1.00
14401;DHT22;7285;50.894;5.462;2023-03-21T15:19:24;16.10;1.00
14401;DHT22;7285;50.894;5.462;2023-03-21T15:21:56;15.90;1.00
14401;DHT22;7285;50.894;5.462;2023-03-21T15:24:27;15.90;1.00
14401;DHT22;7285;50.894;5.462;2023-03-21T15:27:07;15.90;1.00
14401;DHT22;7285;50.894;5.462;2023-03-21T15:29:39;15.90;1.00
14401;DHT22;7285;50.894;5.462;2023-03-21T15:32:13;15.90;1.00
14401;DHT22;7285;50.894;5.462;2023-03-21T15:34:41;15.80;1.00
14401;DHT22;7285;50.894;5.462;2023-03-21T15:37:15;15.70;1.00
14401;DHT22;7285;50.894;5.462;2023-03-21T15:39:42;15.60;1.00
14401;DHT22;7285;50.894;5.462;2023-03-21T15:42:24;15.60;1.00
14401;DHT22;7285;50.894;5.462;2023-03-21T15:44:56;15.40;1.00
14401;DHT22;7285;50.894;5.462;2023-03-21T15:47:38;15.30;1.00
14401;DHT22;7285;50.894;5.462;2023-03-21T15:50:09;15.20;1.00
14401;DHT22;7285;50.894;5.462;2023-03-21T15:52:37;15.10;1.00
14401;DHT22;7285;50.894;5.462;2023-03-21T15:55:16;15.10;1.00
14401;DHT22;7285;50.894;5.462;2023-03-21T15:57:47;15.10;1.00
14401;DHT22;7285;50.894;5.462;2023-03-21T16:00:21;15.10;1.00
14401;DHT22;7285;50.894;5.462;2023-03-21T16:02:53;15.10;1.00
14401;DHT22;7285;50.894;5.462;2023-03-21T16:05:24;15.00;1.00
14401;DHT22;7285;50.894;5.462;2023-03-21T16:07:52;15.00;1.00
14401;DHT22;7285;50.894;5.462;2023-03-21T16:10:26;14.90;22.90
14401;DHT22;7285;50.894;5.462;2023-03-21T16:12:53;14.90;36.00
14401;DHT22;7285;50.894;5.462;2023-03-21T16:15:23;14.90;65.60
14401;DHT22;7285;50.894;5.462;2023-03-21T16:17:51;14.80;66.00
14401;DHT22;7285;50.894;5.462;2023-03-21T16:20:20;14.80;97.00
14401;DHT22;7285;50.894;5.462;2023-03-21T16:22:48;14.80;99.90
14401;DHT22;7285;50.894;5.462;2023-03-21T16:25:15;14.70;97.20
14401;DHT22;7285;50.894;5.462;2023-03-21T16:27:42;14.70;99.90
14401;DHT22;7285;50.894;5.462;2023-03-21T16:30:12;14.70;99.90
14401;DHT22;7285;50.894;5.462;2023-03-21T16:32:40;14.70;99.90
14401;DHT22;7285;50.894;5.462;2023-03-21T16:35:08;14.70;99.90
14401;DHT22;7285;50.894;5.462;2023-03-21T16:37:35;14.60;99.90